Flight Number: EUR3027 Duration: 7:00
Departure: John F Kennedy Int'l (KJFK) at 00:00 Distance: 3014 Nm
Arrival: Tel Aviv Ben Gurion (LLBG) at 07:00 Equipment: B777

Weather Information
KENNEDY INTERNATIONAL AIRPORT , NY, United States (KJFK) 40-38N 073-46W 9M Nov 18, 2017 - 06:51 AM EST / 2017.11.18 1151 UTC
Wind: Calm:0
Visibility: 10 mile(s):0
Sky conditions: mostly cloudy Temperature: 32.0 F (0.0 C) Dew Point: 26.1 F (-3.3 C) Relative Humidity: 78% Pressure (altimeter): 30 in. Hg (1015 hPa) Pressure tendency: 0.01 inches (0.4 hPa) lower than three hours ago
ob: KJFK 181151Z 00000KT 10SM FEW150 BKN250 00/M03 A3000 RMK AO2 SLP159 T00001033 10033 21022 58004 cycle: 12
Sunrise: 11:49 Sunset: 21:31 (UTC)

Ben-Gurion International Airport, Israel (LLBG) 32-00N 034-54E 49M Nov 18, 2017 - 06:50 AM EST / 2017.11.18 1150 UTC
Wind: from the WNW (300 degrees) at 6 MPH (5 KT):0
Visibility: 5 mile(s):0 Temperature: 77 F (25 C) Dew Point: 66 F (19 C) Relative Humidity: 69% Pressure (altimeter): 29.83 in. Hg (1010 hPa)
ob: LLBG 181150Z 30005KT 9000 NSC 25/19 Q1010 NOSIG cycle: 12
Sunrise: 04:15 Sunset: 14:36 (UTC)

TAF:2017/11/18 12:15 TAF TAF LLBG 181110Z 1812/1912 30008KT 9000 NSC BECMG 1814/1816 VRB03KT FEW015 PROB30 1816/1819 7000 SCT013 BECMG 1819/1821 15004KT SCT020 PROB30 1823/1905 5000 BR BKN015 BECMG 1907/1909 27010KT 9999 SCT025 TX26/1812Z TN17/1904Z

This route has never been flown.

Route map